Time;durP1;ratioP1;P1;durP2;ratioP2;P2;SDS_P1;SDS_P2;PMS_P1;PMS_P2;Temp;Humidity;BMP_temperature;BMP_pressure;BME280_temperature;BME280_humidity;BME280_pressure;Samples;Min_cycle;Max_cycle;Signal;HPM_P1;HPM_P2
2022/11/15 00:01:31;;;;;;;17.97;12.10;;;13.20;99.90;;;;;;4988597;28;20226;-30
2022/11/15 00:03:58;;;;;;;15.70;11.70;;;13.30;99.90;;;;;;4988250;28;20708;-30
2022/11/15 00:06:30;;;;;;;15.87;11.93;;;13.30;99.90;;;;;;4988650;28;20229;-30
2022/11/15 00:08:58;;;;;;;13.37;11.03;;;13.30;99.90;;;;;;4987682;28;20731;-30
2022/11/15 00:11:26;;;;;;;14.60;12.00;;;13.30;99.90;;;;;;4988213;28;20194;-30
2022/11/15 00:14:02;;;;;;;13.30;11.17;;;13.40;99.90;;;;;;4990903;28;20329;-30
2022/11/15 00:16:31;;;;;;;14.30;11.57;;;13.40;99.90;;;;;;4987545;28;20197;-30
2022/11/15 00:18:58;;;;;;;13.53;11.10;;;13.40;99.90;;;;;;4988482;28;20203;-30
2022/11/15 00:21:27;;;;;;;12.53;10.87;;;13.50;99.90;;;;;;4988245;28;20218;-30
2022/11/15 00:24:00;;;;;;;13.07;11.23;;;13.40;99.90;;;;;;5002016;28;20293;-30
2022/11/15 00:26:29;;;;;;;15.03;11.80;;;13.50;99.90;;;;;;4986721;28;20218;-30
2022/11/15 00:28:57;;;;;;;14.80;11.53;;;13.50;99.90;;;;;;4988074;28;20591;-30
2022/11/15 00:31:24;;;;;;;13.93;11.60;;;13.60;99.90;;;;;;4988118;28;20202;-30
2022/11/15 00:33:51;;;;;;;13.37;11.70;;;13.50;99.90;;;;;;4988070;28;20199;-30
2022/11/15 00:36:18;;;;;;;13.57;11.20;;;13.60;99.90;;;;;;5002915;28;20202;-30
2022/11/15 00:38:47;;;;;;;15.83;11.03;;;13.60;99.90;;;;;;4987096;28;20214;-30
2022/11/15 00:41:17;;;;;;;14.77;11.70;;;13.60;99.90;;;;;;4988139;28;20206;-30
2022/11/15 00:43:44;;;;;;;14.53;11.43;;;13.60;99.90;;;;;;4988067;28;20202;-30
2022/11/15 00:46:11;;;;;;;12.37;11.07;;;13.70;99.90;;;;;;4987991;28;20198;-30
2022/11/15 00:48:40;;;;;;;16.30;11.20;;;13.70;99.90;;;;;;4987606;28;20241;-30
2022/11/15 00:51:10;;;;;;;13.67;12.03;;;13.70;99.90;;;;;;4988189;28;20289;-30
2022/11/15 00:53:39;;;;;;;13.20;11.17;;;13.80;99.90;;;;;;5001918;28;20202;-30
2022/11/15 00:56:06;;;;;;;14.77;12.03;;;13.80;99.90;;;;;;4987826;28;20218;-30
2022/11/15 00:58:36;;;;;;;15.87;11.90;;;13.80;99.90;;;;;;4987323;28;20314;-30
2022/11/15 01:01:14;;;;;;;14.43;12.13;;;13.80;99.90;;;;;;4988388;28;20751;-30
2022/11/15 01:03:41;;;;;;;13.60;12.07;;;13.80;99.90;;;;;;4995913;28;20202;-30
2022/11/15 01:06:11;;;;;;;13.70;11.50;;;13.80;99.90;;;;;;4985776;28;20226;-30
2022/11/15 01:08:39;;;;;;;13.20;11.80;;;13.80;99.90;;;;;;5005400;28;20316;-30
2022/11/15 01:11:10;;;;;;;15.60;12.50;;;13.90;99.90;;;;;;5002206;28;20285;-30
2022/11/15 01:13:40;;;;;;;14.20;11.77;;;13.90;99.90;;;;;;4987244;28;20232;-30
2022/11/15 01:16:12;;;;;;;13.77;11.60;;;13.90;99.90;;;;;;4987337;28;20599;-30
2022/11/15 01:18:40;;;;;;;14.17;12.50;;;13.90;99.90;;;;;;4985991;28;20221;-30
2022/11/15 01:21:16;;;;;;;16.37;12.07;;;13.90;99.90;;;;;;4987715;28;20626;-30
2022/11/15 01:23:44;;;;;;;15.27;12.30;;;13.90;99.90;;;;;;4984770;28;20443;-30
2022/11/15 01:26:14;;;;;;;14.70;11.70;;;13.90;99.90;;;;;;4987142;28;20214;-30
2022/11/15 01:28:43;;;;;;;13.80;11.17;;;13.90;99.90;;;;;;4987081;28;20236;-30
2022/11/15 01:31:17;;;;;;;14.63;12.20;;;14.00;99.90;;;;;;5001917;28;20202;-30
2022/11/15 01:33:47;;;;;;;13.40;11.83;;;14.00;99.90;;;;;;4986662;28;20205;-29
2022/11/15 01:36:21;;;;;;;16.17;12.50;;;14.00;99.90;;;;;;4987384;28;20204;-30
2022/11/15 01:38:58;;;;;;;15.87;12.30;;;13.90;99.90;;;;;;4986023;28;20239;-30
2022/11/15 01:41:30;;;;;;;15.43;11.87;;;14.00;99.90;;;;;;4985392;28;20208;-30
2022/11/15 01:44:36;;;;;;;15.07;12.13;;;14.00;99.90;;;;;;4986690;28;20236;-28
2022/11/15 01:47:14;;;;;;;16.57;12.17;;;14.00;99.90;;;;;;4986004;28;20206;-28
2022/11/15 01:49:54;;;;;;;14.80;12.27;;;14.00;99.90;;;;;;4986437;28;20241;-28
2022/11/15 01:52:25;;;;;;;16.23;12.90;;;14.00;99.90;;;;;;4985645;28;20197;-28
2022/11/15 01:54:58;;;;;;;17.23;12.97;;;14.00;99.90;;;;;;4985292;28;20256;-28
2022/11/15 01:57:25;;;;;;;15.47;12.57;;;14.00;99.90;;;;;;4986582;28;20217;-28
2022/11/15 01:59:53;;;;;;;14.77;12.27;;;14.10;99.90;;;;;;4985609;28;20220;-28
2022/11/15 02:02:20;;;;;;;14.97;13.07;;;14.10;99.90;;;;;;4996859;28;20301;-28
2022/11/15 02:04:48;;;;;;;17.07;13.00;;;14.10;99.90;;;;;;4996754;28;20230;-28
2022/11/15 02:07:18;;;;;;;19.23;13.43;;;14.10;99.90;;;;;;4990192;28;20206;-26
2022/11/15 02:09:48;;;;;;;15.23;12.53;;;14.10;99.90;;;;;;5016007;28;20291;-28
2022/11/15 02:12:21;;;;;;;14.33;12.77;;;14.20;99.90;;;;;;5024359;28;20196;-28
2022/11/15 02:14:54;;;;;;;17.30;13.40;;;14.20;99.90;;;;;;5018878;28;20217;-28
2022/11/15 02:17:45;;;;;;;16.63;13.33;;;14.20;99.90;;;;;;4995223;28;20197;-29
2022/11/15 02:20:24;;;;;;;15.90;13.23;;;14.20;99.90;;;;;;5013091;28;20215;-29
2022/11/15 02:23:16;;;;;;;16.37;13.10;;;14.20;99.90;;;;;;5022845;28;20227;-29
2022/11/15 02:26:30;;;;;;;16.03;13.97;;;14.20;99.90;;;;;;5023639;28;20319;-28
2022/11/15 02:29:34;;;;;;;19.30;13.83;;;14.20;99.90;;;;;;5018964;28;20296;-28
2022/11/15 02:32:27;;;;;;;16.07;12.57;;;14.20;99.90;;;;;;5004637;28;20231;-29
2022/11/15 02:35:20;;;;;;;16.07;13.27;;;14.30;99.90;;;;;;5000324;28;20213;-28
2022/11/15 02:38:04;;;;;;;16.97;13.33;;;14.30;99.90;;;;;;5004808;28;20202;-28
2022/11/15 02:40:58;;;;;;;14.53;12.43;;;14.30;99.90;;;;;;5009671;28;20209;-28
2022/11/15 02:43:56;;;;;;;14.50;12.87;;;14.30;99.90;;;;;;5009279;28;20449;-28
2022/11/15 02:49:31;;;;;;;14.40;12.37;;;14.30;99.90;;;;;;5007203;28;20634;-28
2022/11/15 02:52:00;;;;;;;15.63;12.67;;;14.20;99.90;;;;;;4988797;28;20209;-28
2022/11/15 02:54:33;;;;;;;13.50;12.10;;;14.30;99.90;;;;;;4989244;28;20201;-29
2022/11/15 02:57:12;;;;;;;15.83;12.73;;;14.30;99.90;;;;;;4990074;28;20201;-29
2022/11/15 03:00:00;;;;;;;13.40;11.97;;;14.30;99.90;;;;;;4989979;28;20194;-30
2022/11/15 03:02:44;;;;;;;15.63;12.47;;;14.30;99.90;;;;;;4989357;28;20225;-29
2022/11/15 03:05:35;;;;;;;14.43;12.60;;;14.30;99.90;;;;;;4989855;28;20705;-30
2022/11/15 03:08:26;;;;;;;15.43;12.60;;;14.30;99.90;;;;;;4988752;28;20206;-29
2022/11/15 03:10:55;;;;;;;15.90;12.47;;;14.30;99.90;;;;;;4989339;28;20218;-29
2022/11/15 03:13:37;;;;;;;14.30;12.60;;;14.20;99.90;;;;;;4989350;28;20282;-29
2022/11/15 03:16:33;;;;;;;15.90;13.40;;;14.30;99.90;;;;;;4988943;28;20202;-29
2022/11/15 03:19:22;;;;;;;17.30;13.33;;;14.30;99.90;;;;;;4988778;28;20293;-29
2022/11/15 03:21:52;;;;;;;16.67;13.37;;;14.20;99.90;;;;;;4988755;28;20276;-30
2022/11/15 03:24:20;;;;;;;14.73;12.50;;;14.20;99.90;;;;;;4988946;28;20205;-29
2022/11/15 03:26:59;;;;;;;15.20;12.53;;;14.20;99.90;;;;;;4989164;28;20289;-30
2022/11/15 03:29:38;;;;;;;14.73;11.90;;;14.30;99.90;;;;;;4989109;28;20218;-29
2022/11/15 03:32:14;;;;;;;15.33;12.60;;;14.30;99.90;;;;;;4988473;28;20198;-30
2022/11/15 03:34:56;;;;;;;15.53;12.70;;;14.30;99.90;;;;;;4988620;28;20700;-29
2022/11/15 03:37:33;;;;;;;16.10;13.37;;;14.30;99.90;;;;;;4987775;28;20211;-29
2022/11/15 03:40:04;;;;;;;17.00;13.23;;;14.30;99.90;;;;;;4988568;28;20232;-29
2022/11/15 03:42:59;;;;;;;14.47;12.23;;;14.30;99.90;;;;;;4988695;28;20598;-29
2022/11/15 03:45:37;;;;;;;15.03;13.07;;;14.30;99.90;;;;;;4988588;28;20238;-30
2022/11/15 03:48:14;;;;;;;16.30;12.03;;;14.30;99.90;;;;;;4988267;28;20752;-30
2022/11/15 03:50:46;;;;;;;13.70;11.53;;;14.30;99.90;;;;;;4999479;28;20233;-30
2022/11/15 03:53:13;;;;;;;14.43;12.93;;;14.30;99.90;;;;;;5006888;28;20228;-29
2022/11/15 03:55:43;;;;;;;16.67;13.67;;;14.30;99.90;;;;;;5008041;28;20542;-29
2022/11/15 03:58:12;;;;;;;13.80;11.70;;;14.30;99.90;;;;;;5007804;28;20209;-29
2022/11/15 04:00:42;;;;;;;14.57;12.20;;;14.30;99.90;;;;;;5006382;28;20209;-30
2022/11/15 04:03:14;;;;;;;17.10;12.70;;;14.30;99.90;;;;;;5007494;28;20684;-30
2022/11/15 04:05:41;;;;;;;13.60;12.20;;;14.30;99.90;;;;;;5008022;28;20197;-30
2022/11/15 04:08:11;;;;;;;14.80;11.67;;;14.30;99.90;;;;;;5006764;28;20739;-29
2022/11/15 04:10:39;;;;;;;13.60;12.20;;;14.40;99.90;;;;;;5007497;28;20234;-29
2022/11/15 04:13:06;;;;;;;14.50;11.23;;;14.40;99.90;;;;;;5007438;28;20193;-29
2022/11/15 04:15:33;;;;;;;13.17;11.10;;;14.30;99.90;;;;;;5007802;28;20564;-29
2022/11/15 04:18:03;;;;;;;13.30;10.93;;;14.30;99.90;;;;;;5007332;28;20212;-29
2022/11/15 04:26:18;;;;;;;16.93;10.53;;;14.30;99.90;;;;;;5007079;28;20205;-29
2022/11/15 04:31:31;;;;;;;12.90;10.73;;;14.30;99.90;;;;;;5007230;28;20691;-29
2022/11/15 04:34:00;;;;;;;14.07;10.67;;;14.30;99.90;;;;;;5007054;28;20976;-29
2022/11/15 04:39:15;;;;;;;12.97;10.97;;;14.20;99.90;;;;;;5006781;28;20201;-30
2022/11/15 04:41:42;;;;;;;12.20;10.17;;;14.20;99.90;;;;;;5007344;28;20220;-30
2022/11/15 04:44:12;;;;;;;12.83;10.07;;;14.20;99.90;;;;;;5007041;28;20679;-30
2022/11/15 04:46:41;;;;;;;13.23;9.97;;;14.20;99.90;;;;;;5008031;28;20205;-29
2022/11/15 04:49:13;;;;;;;12.70;9.33;;;14.20;99.90;;;;;;5006955;28;20245;-30
2022/11/15 04:51:42;;;;;;;10.67;8.83;;;14.20;99.90;;;;;;5007086;28;20300;-29
2022/11/15 04:54:09;;;;;;;9.07;8.03;;;14.20;99.90;;;;;;5007225;28;20213;-29
2022/11/15 04:56:37;;;;;;;11.80;8.97;;;14.20;99.90;;;;;;5007311;28;20220;-29
2022/11/15 04:59:04;;;;;;;11.27;8.63;;;14.20;99.90;;;;;;5007097;28;20611;-29
2022/11/15 05:01:31;;;;;;;10.70;7.70;;;14.10;99.90;;;;;;5006400;28;20212;-30
2022/11/15 05:04:19;;;;;;;10.27;8.13;;;14.10;99.90;;;;;;5006821;28;20288;-30
2022/11/15 05:06:52;;;;;;;10.63;7.83;;;14.10;99.90;;;;;;5006649;28;20304;-30
2022/11/15 05:09:23;;;;;;;9.23;7.53;;;14.00;99.90;;;;;;5006016;28;20324;-29
2022/11/15 05:11:50;;;;;;;10.87;7.60;;;14.00;99.90;;;;;;5006890;28;20225;-29
2022/11/15 05:14:17;;;;;;;10.87;8.07;;;14.00;99.90;;;;;;5021419;28;20292;-29
2022/11/15 05:16:45;;;;;;;10.27;7.60;;;13.90;99.90;;;;;;5006708;28;20193;-29
2022/11/15 05:19:14;;;;;;;10.63;7.37;;;13.90;99.90;;;;;;5006787;28;20280;-29
2022/11/15 05:21:46;;;;;;;10.13;7.53;;;13.90;99.90;;;;;;5006224;28;20216;-29
2022/11/15 05:24:13;;;;;;;8.63;7.33;;;13.90;99.90;;;;;;5006482;28;20210;-29
2022/11/15 05:26:40;;;;;;;10.03;7.20;;;13.80;99.90;;;;;;5006343;28;20276;-29
2022/11/15 05:29:10;;;;;;;7.13;5.97;;;13.80;99.90;;;;;;5021431;28;20213;-29
2022/11/15 05:31:42;;;;;;;9.97;7.10;;;13.80;99.90;;;;;;5005083;28;20301;-29
2022/11/15 05:34:12;;;;;;;8.43;6.67;;;13.80;99.90;;;;;;5004502;28;20235;-30
2022/11/15 05:36:44;;;;;;;7.40;6.60;;;13.80;99.90;;;;;;5006136;28;20201;-29
2022/11/15 05:39:14;;;;;;;9.63;6.73;;;13.80;99.90;;;;;;5021999;28;20198;-29
2022/11/15 05:42:13;;;;;;;8.97;7.10;;;13.70;99.90;;;;;;5006448;28;20205;-30
2022/11/15 05:44:48;;;;;;;9.57;7.07;;;13.70;99.90;;;;;;5004437;28;20292;-30
2022/11/15 05:47:21;;;;;;;8.20;6.20;;;13.70;99.90;;;;;;5005944;28;20251;-30
2022/11/15 05:49:51;;;;;;;7.20;6.03;;;13.70;99.90;;;;;;5001313;28;20240;-30
2022/11/15 05:52:25;;;;;;;11.03;5.90;;;13.60;99.90;;;;;;4985818;28;20214;-30
2022/11/15 05:54:53;;;;;;;8.67;6.37;;;13.60;99.90;;;;;;4986755;28;20457;-29
2022/11/15 05:57:20;;;;;;;6.87;5.87;;;13.60;99.90;;;;;;4986116;28;20572;-30
2022/11/15 05:59:47;;;;;;;8.40;6.80;;;13.60;99.90;;;;;;4985740;28;20207;-29
2022/11/15 06:02:17;;;;;;;8.70;5.93;;;13.50;99.90;;;;;;4991717;28;20552;-29
2022/11/15 06:04:46;;;;;;;9.10;5.90;;;13.50;99.90;;;;;;5001526;28;21071;-29
2022/11/15 06:07:16;;;;;;;6.60;5.90;;;13.50;99.90;;;;;;4998141;28;20197;-30
2022/11/15 06:09:43;;;;;;;7.93;5.80;;;13.40;99.90;;;;;;4990088;28;20312;-29
2022/11/15 06:12:15;;;;;;;9.17;6.90;;;13.40;99.90;;;;;;5000986;28;20210;-29
2022/11/15 06:14:44;;;;;;;7.33;5.77;;;13.40;99.90;;;;;;5000809;28;20709;-30
2022/11/15 06:17:14;;;;;;;7.90;6.10;;;13.30;99.90;;;;;;5001824;28;20612;-29
2022/11/15 06:19:41;;;;;;;9.37;6.50;;;13.30;99.90;;;;;;5001769;28;20201;-29
2022/11/15 06:22:10;;;;;;;7.00;5.67;;;13.30;99.90;;;;;;5006288;28;20221;-29
2022/11/15 06:24:37;;;;;;;8.20;6.17;;;13.30;99.90;;;;;;5005683;28;20206;-31
2022/11/15 06:27:06;;;;;;;8.87;6.20;;;13.20;99.90;;;;;;5005799;28;20692;-32
2022/11/15 06:29:36;;;;;;;16.13;6.13;;;13.20;99.90;;;;;;5006425;28;20667;-31
2022/11/15 06:32:06;;;;;;;14.57;6.50;;;13.20;99.90;;;;;;5004521;28;20204;-31
2022/11/15 06:34:35;;;;;;;11.70;6.73;;;13.20;99.90;;;;;;5004574;28;20219;-31
2022/11/15 06:37:02;;;;;;;8.90;6.00;;;13.10;99.90;;;;;;5013500;28;20213;-30
2022/11/15 06:39:29;;;;;;;11.07;6.50;;;13.10;99.90;;;;;;5002749;28;20209;-31
2022/11/15 06:41:59;;;;;;;11.03;6.60;;;13.00;99.90;;;;;;4992094;28;20218;-31
2022/11/15 06:44:26;;;;;;;9.57;6.27;;;13.00;99.90;;;;;;5005517;28;20623;-30
2022/11/15 06:46:55;;;;;;;9.43;6.37;;;13.00;99.90;;;;;;4993178;28;20417;-31
2022/11/15 06:49:28;;;;;;;9.60;6.10;;;12.90;99.90;;;;;;5000582;28;20233;-30
2022/11/15 06:51:55;;;;;;;9.77;6.63;;;12.90;99.90;;;;;;5015689;28;20211;-30
2022/11/15 06:54:22;;;;;;;8.30;6.13;;;12.80;99.90;;;;;;5003793;28;20899;-31
2022/11/15 06:56:49;;;;;;;8.57;6.47;;;12.80;99.90;;;;;;4998672;28;20212;-31
2022/11/15 06:59:16;;;;;;;7.80;6.10;;;12.80;99.90;;;;;;5004882;28;20201;-31
2022/11/15 07:01:46;;;;;;;9.23;6.23;;;12.70;99.90;;;;;;5003665;28;20202;-30
2022/11/15 07:04:16;;;;;;;11.50;6.43;;;12.70;99.90;;;;;;5008934;28;20295;-31
2022/11/15 07:06:47;;;;;;;7.60;5.80;;;12.70;99.90;;;;;;5024364;28;20500;-31
2022/11/15 07:09:14;;;;;;;10.17;6.20;;;12.60;99.90;;;;;;5024772;28;20197;-30
2022/11/15 07:11:44;;;;;;;8.37;6.00;;;12.60;99.90;;;;;;5003373;28;20307;-31
2022/11/15 07:14:13;;;;;;;9.60;6.20;;;12.50;99.90;;;;;;5003426;28;20212;-31
2022/11/15 07:16:40;;;;;;;8.60;5.73;;;12.50;99.90;;;;;;5005141;28;20324;-31
2022/11/15 07:19:10;;;;;;;8.10;5.77;;;12.50;99.90;;;;;;5003020;28;20727;-30
2022/11/15 07:21:39;;;;;;;9.23;5.60;;;12.50;99.90;;;;;;5012958;28;20218;-30
2022/11/15 07:24:06;;;;;;;11.87;6.03;;;12.40;99.90;;;;;;5000034;28;20609;-31
2022/11/15 07:26:36;;;;;;;9.53;6.23;;;12.40;99.90;;;;;;5003850;28;20792;-31
2022/11/15 07:29:05;;;;;;;10.63;5.97;;;12.40;99.90;;;;;;5018391;28;20696;-31
2022/11/15 07:31:35;;;;;;;10.57;6.20;;;12.40;99.90;;;;;;4995460;28;20237;-31
2022/11/15 07:34:04;;;;;;;7.50;5.57;;;12.40;99.90;;;;;;5002396;28;20727;-31
2022/11/15 07:36:31;;;;;;;10.67;5.57;;;12.30;99.90;;;;;;5007056;28;20214;-31
2022/11/15 07:39:01;;;;;;;7.33;4.97;;;12.30;99.90;;;;;;5004772;28;20236;-31
2022/11/15 07:41:29;;;;;;;7.13;4.50;;;12.30;99.90;;;;;;5012314;28;20221;-31
2022/11/15 07:44:00;;;;;;;7.23;4.43;;;12.30;99.90;;;;;;5008531;28;20260;-31
2022/11/15 07:46:27;;;;;;;6.80;4.70;;;12.30;99.90;;;;;;5008106;28;20280;-31
2022/11/15 07:48:59;;;;;;;8.33;4.47;;;12.30;99.90;;;;;;5007854;28;20241;-31
2022/11/15 07:51:28;;;;;;;8.60;4.13;;;12.30;99.90;;;;;;5005605;28;20218;-30
2022/11/15 07:53:58;;;;;;;6.53;4.30;;;12.30;99.90;;;;;;5001101;28;20202;-31
2022/11/15 07:56:25;;;;;;;6.47;4.00;;;12.30;99.90;;;;;;5008800;28;20214;-31
2022/11/15 07:58:59;;;;;;;9.63;4.63;;;12.30;99.90;;;;;;5003867;28;20210;-31
2022/11/15 08:01:28;;;;;;;9.47;4.60;;;12.30;99.90;;;;;;5005872;28;20237;-30
2022/11/15 08:03:57;;;;;;;12.60;5.40;;;12.30;99.90;;;;;;5013311;28;20197;-30
2022/11/15 08:06:27;;;;;;;8.20;4.50;;;12.30;99.90;;;;;;5007653;28;20336;-30
2022/11/15 08:08:54;;;;;;;6.27;4.00;;;12.30;99.90;;;;;;5011250;28;20749;-30
2022/11/15 08:11:26;;;;;;;12.87;5.20;;;12.30;99.90;;;;;;5005709;28;20257;-30
2022/11/15 08:13:53;;;;;;;10.37;4.53;;;12.30;99.90;;;;;;5006099;28;20272;-30
2022/11/15 08:16:25;;;;;;;11.80;5.63;;;12.30;99.90;;;;;;5004882;28;20206;-30
2022/11/15 08:18:52;;;;;;;9.93;4.60;;;12.40;99.90;;;;;;5005361;28;20201;-30
2022/11/15 08:21:22;;;;;;;6.17;3.50;;;12.40;99.90;;;;;;4999329;28;20263;-30
2022/11/15 08:23:52;;;;;;;9.33;3.50;;;12.40;99.90;;;;;;5008672;28;20225;-30
2022/11/15 08:26:22;;;;;;;8.10;3.83;;;12.40;99.90;;;;;;5010206;28;20221;-30
2022/11/15 08:28:53;;;;;;;8.40;3.60;;;12.40;99.90;;;;;;5005375;28;20263;-30
2022/11/15 08:31:21;;;;;;;6.97;2.87;;;12.40;99.90;;;;;;5011748;28;20272;-30
2022/11/15 08:33:48;;;;;;;4.07;2.37;;;12.40;99.90;;;;;;5005623;28;20627;-30
2022/11/15 08:36:20;;;;;;;3.57;2.10;;;12.40;99.90;;;;;;5008165;28;20654;-30
2022/11/15 08:38:49;;;;;;;4.83;1.97;;;12.40;99.90;;;;;;5018205;28;20762;-30
2022/11/15 08:41:36;;;;;;;3.77;1.50;;;12.40;99.90;;;;;;5003757;28;20284;-30
2022/11/15 08:44:04;;;;;;;4.13;1.70;;;12.50;99.90;;;;;;5002624;28;20690;-30
2022/11/15 08:46:31;;;;;;;5.33;1.70;;;12.40;99.90;;;;;;5026094;28;20213;-30
2022/11/15 08:48:58;;;;;;;5.20;1.50;;;12.50;99.90;;;;;;5025988;28;20236;-30
2022/11/15 08:51:25;;;;;;;6.57;1.90;;;12.50;99.90;;;;;;5010012;28;20221;-30
2022/11/15 08:53:55;;;;;;;4.10;1.80;;;12.50;99.90;;;;;;5004327;28;20312;-30
2022/11/15 08:56:22;;;;;;;3.93;1.40;;;12.50;99.90;;;;;;5019945;28;20648;-30
2022/11/15 08:58:49;;;;;;;3.27;1.50;;;12.50;99.90;;;;;;5003228;28;20233;-30
2022/11/15 09:01:18;;;;;;;5.07;1.80;;;12.50;99.90;;;;;;4988344;28;20210;-30
2022/11/15 09:03:48;;;;;;;5.90;2.03;;;12.50;99.90;;;;;;5019396;28;20209;-30
2022/11/15 09:06:18;;;;;;;4.37;2.20;;;12.50;99.90;;;;;;5005707;28;20284;-30
2022/11/15 09:08:46;;;;;;;8.20;1.87;;;12.50;99.90;;;;;;5007705;28;20766;-30
2022/11/15 09:11:16;;;;;;;6.90;2.33;;;12.50;99.90;;;;;;5003204;28;20765;-30
2022/11/15 09:13:43;;;;;;;10.07;2.13;;;12.60;99.90;;;;;;4987379;28;20237;-29
2022/11/15 09:16:15;;;;;;;6.83;1.97;;;12.60;99.90;;;;;;5005077;28;20213;-30
2022/11/15 09:18:42;;;;;;;7.20;1.80;;;12.60;99.90;;;;;;5006393;28;20228;-29
2022/11/15 09:21:12;;;;;;;8.53;2.00;;;12.70;99.90;;;;;;5016997;28;20228;-32
2022/11/15 09:23:39;;;;;;;8.23;2.17;;;12.70;99.90;;;;;;5016965;28;20772;-32
2022/11/15 09:26:09;;;;;;;4.67;1.93;;;12.70;99.90;;;;;;5003260;28;20705;-30
2022/11/15 09:28:36;;;;;;;7.67;1.70;;;12.80;99.90;;;;;;5011689;28;20204;-30
2022/11/15 09:31:05;;;;;;;7.07;2.07;;;12.80;99.90;;;;;;5026378;28;20430;-29
2022/11/15 09:33:34;;;;;;;6.50;2.67;;;12.80;99.90;;;;;;5013188;28;20208;-30
2022/11/15 09:36:09;;;;;;;6.47;1.93;;;12.80;99.90;;;;;;5009625;28;20205;-30
2022/11/15 09:38:36;;;;;;;7.73;1.80;;;12.90;99.90;;;;;;5004121;28;20209;-30
2022/11/15 09:41:12;;;;;;;7.73;2.10;;;12.90;99.90;;;;;;5004981;28;20237;-30
2022/11/15 09:43:58;;;;;;;3.53;1.50;;;13.00;99.90;;;;;;5005297;28;20219;-30
2022/11/15 09:46:44;;;;;;;4.00;1.30;;;13.00;99.90;;;;;;5006199;28;20638;-30
2022/11/15 09:49:15;;;;;;;4.30;1.43;;;13.00;99.90;;;;;;5009694;28;20337;-29
2022/11/15 09:51:51;;;;;;;3.47;1.50;;;13.10;99.90;;;;;;5011135;28;20251;-30
2022/11/15 09:54:27;;;;;;;7.53;1.90;;;13.10;99.90;;;;;;5022268;28;20205;-29
2022/11/15 09:57:19;;;;;;;5.60;1.47;;;13.10;99.90;;;;;;5023226;28;20208;-29
2022/11/15 10:00:04;;;;;;;6.40;1.80;;;13.20;99.90;;;;;;5031077;28;20214;-30
2022/11/15 10:03:15;;;;;;;5.50;1.60;;;13.20;99.90;;;;;;5006032;28;20522;-29
2022/11/15 10:05:51;;;;;;;6.10;2.10;;;13.20;99.90;;;;;;5018562;28;20206;-30
2022/11/15 10:08:57;;;;;;;10.00;2.30;;;13.30;99.90;;;;;;5000670;28;20263;-30
2022/11/15 10:11:28;;;;;;;6.50;1.77;;;13.30;99.90;;;;;;5003004;28;20247;-30
2022/11/15 10:14:21;;;;;;;5.17;1.30;;;13.30;99.90;;;;;;5012829;28;20209;-30
2022/11/15 10:17:13;;;;;;;4.50;1.50;;;13.40;99.90;;;;;;5011098;28;20237;-29
2022/11/15 10:19:50;;;;;;;8.50;1.50;;;13.40;99.90;;;;;;5005590;28;20564;-30
2022/11/15 10:22:26;;;;;;;2.03;1.00;;;13.40;99.90;;;;;;5002913;28;20271;-30
2022/11/15 10:25:19;;;;;;;3.50;1.23;;;13.40;99.90;;;;;;5002626;28;20676;-29
2022/11/15 10:28:12;;;;;;;3.80;1.13;;;13.40;99.90;;;;;;5028247;28;20209;-30
2022/11/15 10:30:51;;;;;;;4.53;1.20;;;13.50;99.90;;;;;;5020836;28;20229;-30
2022/11/15 10:33:31;;;;;;;5.00;1.30;;;13.50;99.90;;;;;;5022217;28;20307;-30
2022/11/15 10:36:18;;;;;;;5.00;1.27;;;13.50;99.90;;;;;;5006525;28;20758;-29
2022/11/15 10:38:50;;;;;;;4.47;1.20;;;13.50;99.90;;;;;;5008247;28;20292;-29
2022/11/15 10:41:20;;;;;;;2.87;1.07;;;13.50;99.90;;;;;;5004404;28;20248;-29
2022/11/15 10:44:14;;;;;;;4.43;1.27;;;13.50;99.90;;;;;;5010002;28;20308;-29
2022/11/15 10:46:46;;;;;;;5.07;1.50;;;13.60;99.90;;;;;;5013274;28;20201;-29
2022/11/15 10:49:14;;;;;;;7.47;1.53;;;13.60;99.90;;;;;;5039616;28;20241;-30
2022/11/15 10:52:12;;;;;;;5.17;1.30;;;13.60;99.90;;;;;;5014203;28;20292;-29
2022/11/15 10:54:46;;;;;;;3.47;1.00;;;13.60;99.90;;;;;;5009599;28;20212;-29
2022/11/15 10:57:19;;;;;;;4.20;1.20;;;13.70;99.90;;;;;;5000906;28;20214;-29
2022/11/15 10:59:53;;;;;;;5.20;1.10;;;13.70;99.90;;;;;;5020678;28;20204;-30
2022/11/15 11:02:32;;;;;;;5.83;1.43;;;13.80;99.90;;;;;;5008218;28;20220;-29
2022/11/15 11:05:00;;;;;;;4.43;1.40;;;13.80;99.90;;;;;;5019598;28;20231;-29
2022/11/15 11:07:32;;;;;;;6.33;1.33;;;13.80;99.90;;;;;;5017666;28;20884;-29
2022/11/15 11:10:16;;;;;;;4.33;1.43;;;13.80;99.90;;;;;;5019853;28;20241;-29
2022/11/15 11:13:14;;;;;;;3.47;1.30;;;13.90;99.90;;;;;;5017611;28;20204;-30
2022/11/15 11:15:48;;;;;;;4.40;1.17;;;13.90;99.90;;;;;;5003582;28;20220;-30
2022/11/15 11:18:32;;;;;;;7.20;2.00;;;14.00;99.90;;;;;;5025498;28;20216;-29
2022/11/15 11:21:04;;;;;;;2.67;1.13;;;14.00;99.90;;;;;;5007091;28;20197;-30
2022/11/15 11:23:43;;;;;;;6.17;1.50;;;14.10;99.90;;;;;;4999726;28;20206;-29
2022/11/15 11:26:44;;;;;;;4.97;1.67;;;14.10;99.90;;;;;;4992370;28;20204;-29
2022/11/15 11:29:28;;;;;;;8.47;1.87;;;14.20;99.90;;;;;;5004242;28;20299;-29
2022/11/15 11:32:07;;;;;;;2.97;1.20;;;14.20;99.90;;;;;;4989948;28;20640;-30
2022/11/15 11:34:40;;;;;;;3.63;1.20;;;14.20;99.90;;;;;;5002370;28;20202;-30
2022/11/15 11:37:26;;;;;;;3.03;1.20;;;14.20;99.90;;;;;;5011870;28;20221;-30
2022/11/15 11:40:08;;;;;;;7.83;1.30;;;14.30;99.90;;;;;;5006814;28;20236;-30
2022/11/15 11:43:01;;;;;;;3.50;1.40;;;14.30;99.90;;;;;;5025115;28;20215;-29
2022/11/15 11:45:34;;;;;;;6.17;1.50;;;14.40;99.90;;;;;;5014252;28;20700;-30
2022/11/15 11:48:14;;;;;;;3.73;1.20;;;14.40;99.90;;;;;;5004097;28;20238;-30
2022/11/15 11:50:47;;;;;;;6.53;1.50;;;14.50;99.90;;;;;;5025881;28;20624;-29
2022/11/15 11:53:24;;;;;;;6.83;1.10;;;14.50;99.90;;;;;;5012885;28;20232;-29
2022/11/15 11:55:58;;;;;;;7.47;1.20;;;14.50;99.90;;;;;;5022882;28;20213;-30
2022/11/15 11:58:38;;;;;;;5.03;1.33;;;14.60;99.90;;;;;;5021324;28;20235;-30
2022/11/15 12:01:24;;;;;;;5.17;2.30;;;14.60;99.90;;;;;;5042557;28;20212;-30
2022/11/15 12:04:10;;;;;;;13.33;3.00;;;14.70;99.90;;;;;;5011246;28;20607;-29
2022/11/15 12:06:56;;;;;;;8.33;2.63;;;14.70;99.90;;;;;;5002941;28;20214;-30
2022/11/15 12:09:47;;;;;;;8.37;2.03;;;14.70;99.90;;;;;;5002547;28;20799;-29
2022/11/15 12:12:33;;;;;;;5.90;1.50;;;14.70;99.90;;;;;;5005158;28;20437;-29
2022/11/15 12:15:10;;;;;;;8.07;1.63;;;14.80;99.90;;;;;;4998770;28;20744;-30
2022/11/15 12:17:40;;;;;;;7.70;2.17;;;14.80;99.90;;;;;;4993379;28;20626;-28
2022/11/15 12:20:29;;;;;;;5.93;2.10;;;14.80;99.90;;;;;;5006114;28;20189;-28
2022/11/15 12:23:17;;;;;;;4.40;1.87;;;14.90;99.90;;;;;;4998136;28;20217;-28
2022/11/15 12:26:08;;;;;;;3.87;0.90;;;14.90;99.90;;;;;;4994399;28;20212;-28
2022/11/15 12:28:54;;;;;;;7.83;1.60;;;14.90;99.90;;;;;;4994230;28;20640;-28
2022/11/15 12:31:35;;;;;;;5.63;2.30;;;15.00;99.90;;;;;;5003176;28;20225;-28
2022/11/15 12:34:15;;;;;;;6.23;2.37;;;15.00;99.90;;;;;;5003108;28;20223;-28
2022/11/15 12:36:49;;;;;;;4.07;1.60;;;15.00;99.90;;;;;;5002886;28;20576;-28
2022/11/15 12:39:39;;;;;;;4.20;1.20;;;15.00;99.90;;;;;;5004474;28;20650;-28
2022/11/15 12:42:06;;;;;;;1.80;1.00;;;15.00;99.90;;;;;;5011099;28;20319;-28
2022/11/15 12:44:33;;;;;;;2.03;1.20;;;15.10;99.90;;;;;;5006886;28;20229;-28
2022/11/15 12:47:08;;;;;;;3.87;1.00;;;15.10;99.90;;;;;;5008301;28;20304;-28
2022/11/15 12:49:35;;;;;;;3.10;1.10;;;15.10;99.90;;;;;;5006723;28;20237;-28
2022/11/15 12:52:09;;;;;;;3.63;1.27;;;15.10;99.90;;;;;;5002001;28;20528;-28
2022/11/15 12:54:39;;;;;;;4.67;1.70;;;15.20;99.90;;;;;;4995532;28;20198;-28
2022/11/15 12:57:08;;;;;;;5.80;1.63;;;15.10;99.90;;;;;;4998529;28;20217;-28
2022/11/15 12:59:59;;;;;;;4.60;1.33;;;15.20;99.90;;;;;;4991824;28;20212;-28
2022/11/15 13:02:48;;;;;;;3.90;1.20;;;15.20;99.90;;;;;;4995499;28;20241;-28
2022/11/15 13:05:18;;;;;;;2.63;1.00;;;15.20;99.90;;;;;;4998383;28;20271;-28
2022/11/15 13:07:45;;;;;;;4.03;1.20;;;15.20;99.90;;;;;;5012437;28;20232;-28
2022/11/15 13:10:12;;;;;;;3.53;1.60;;;15.20;99.90;;;;;;5002616;28;20657;-28
2022/11/15 13:12:47;;;;;;;4.30;1.20;;;15.30;99.90;;;;;;5001050;28;20214;-28
2022/11/15 13:15:14;;;;;;;4.93;1.40;;;15.30;99.90;;;;;;4997363;28;20221;-28
2022/11/15 13:17:54;;;;;;;4.27;1.00;;;15.30;99.90;;;;;;5005376;28;20296;-28
2022/11/15 13:20:25;;;;;;;3.57;1.43;;;15.40;99.90;;;;;;4990558;28;20289;-28
2022/11/15 13:23:07;;;;;;;4.03;1.30;;;15.40;99.90;;;;;;5015065;28;20206;-28
2022/11/15 13:25:55;;;;;;;1.97;0.97;;;15.40;99.90;;;;;;5010342;28;20205;-28
2022/11/15 13:28:45;;;;;;;3.90;1.30;;;15.50;99.90;;;;;;4995566;28;20341;-28